sensor_id;sensor_type;location;lat;lon;timestamp;pressure;altitude;pressure_sealevel;temperature;humidity
70468;BME280;57934;51.532;7.684;2023-09-19T00:00:22;99525.03;;;16.12;92.59
70468;BME280;57934;51.532;7.684;2023-09-19T00:02:54;99529.19;;;16.25;91.75
70468;BME280;57934;51.532;7.684;2023-09-19T00:05:26;99524.03;;;16.18;91.96
70468;BME280;57934;51.532;7.684;2023-09-19T00:07:55;99520.56;;;16.18;92.36
70468;BME280;57934;51.532;7.684;2023-09-19T00:10:27;99529.53;;;16.12;91.96
70468;BME280;57934;51.532;7.684;2023-09-19T00:12:57;99526.75;;;16.02;91.59
70468;BME280;57934;51.532;7.684;2023-09-19T00:15:26;99534.34;;;15.93;91.28
70468;BME280;57934;51.532;7.684;2023-09-19T00:17:55;99536.16;;;15.87;91.96
70468;BME280;57934;51.532;7.684;2023-09-19T00:20:21;99536.06;;;15.82;92.09
70468;BME280;57934;51.532;7.684;2023-09-19T00:22:50;99543.50;;;15.80;91.93
70468;BME280;57934;51.532;7.684;2023-09-19T00:25:20;99540.84;;;15.63;92.85
70468;BME280;57934;51.532;7.684;2023-09-19T00:27:46;99545.38;;;15.80;91.63
70468;BME280;57934;51.532;7.684;2023-09-19T00:30:13;99548.09;;;15.85;91.45
70468;BME280;57934;51.532;7.684;2023-09-19T00:32:46;99549.50;;;15.70;91.89
70468;BME280;57934;51.532;7.684;2023-09-19T00:35:16;99552.88;;;15.66;92.59
70468;BME280;57934;51.532;7.684;2023-09-19T00:37:43;99550.22;;;15.66;92.49
70468;BME280;57934;51.532;7.684;2023-09-19T00:40:09;99556.53;;;15.65;92.43
70468;BME280;57934;51.532;7.684;2023-09-19T00:42:45;99556.22;;;15.61;92.90
70468;BME280;57934;51.532;7.684;2023-09-19T00:45:14;99570.44;;;15.67;91.79
70468;BME280;57934;51.532;7.684;2023-09-19T00:47:50;99557.28;;;15.60;91.97
70468;BME280;57934;51.532;7.684;2023-09-19T00:50:22;99574.50;;;15.58;91.76
70468;BME280;57934;51.532;7.684;2023-09-19T00:52:53;99567.84;;;15.55;91.50
70468;BME280;57934;51.532;7.684;2023-09-19T00:55:24;99585.56;;;15.49;91.39
70468;BME280;57934;51.532;7.684;2023-09-19T00:57:50;99575.25;;;15.53;90.65
70468;BME280;57934;51.532;7.684;2023-09-19T01:00:16;99575.88;;;15.60;89.75
70468;BME280;57934;51.532;7.684;2023-09-19T01:02:47;99584.59;;;15.56;89.62
70468;BME280;57934;51.532;7.684;2023-09-19T01:05:14;99581.53;;;15.47;90.45
70468;BME280;57934;51.532;7.684;2023-09-19T01:07:40;99596.44;;;15.48;90.08
70468;BME280;57934;51.532;7.684;2023-09-19T01:10:09;99593.69;;;15.43;89.88
70468;BME280;57934;51.532;7.684;2023-09-19T01:15:31;99602.31;;;15.33;90.13
70468;BME280;57934;51.532;7.684;2023-09-19T01:21:05;99594.50;;;15.26;89.97
70468;BME280;57934;51.532;7.684;2023-09-19T01:27:00;99599.00;;;15.26;89.50
70468;BME280;57934;51.532;7.684;2023-09-19T01:29:38;99610.66;;;15.08;90.12
70468;BME280;57934;51.532;7.684;2023-09-19T01:32:06;99604.16;;;15.16;89.82
70468;BME280;57934;51.532;7.684;2023-09-19T01:37:13;99599.72;;;15.04;90.22
70468;BME280;57934;51.532;7.684;2023-09-19T01:39:41;99606.63;;;15.06;89.54
70468;BME280;57934;51.532;7.684;2023-09-19T01:44:54;99612.44;;;15.02;90.42
70468;BME280;57934;51.532;7.684;2023-09-19T01:47:28;99614.91;;;15.09;89.51
70468;BME280;57934;51.532;7.684;2023-09-19T01:52:31;99627.72;;;15.12;88.91
70468;BME280;57934;51.532;7.684;2023-09-19T01:55:06;99623.53;;;14.99;89.95
70468;BME280;57934;51.532;7.684;2023-09-19T01:57:42;99630.28;;;15.07;89.00
70468;BME280;57934;51.532;7.684;2023-09-19T02:00:13;99633.25;;;14.94;89.56
70468;BME280;57934;51.532;7.684;2023-09-19T02:02:44;99634.47;;;15.03;89.20
70468;BME280;57934;51.532;7.684;2023-09-19T02:05:13;99635.75;;;15.00;89.27
70468;BME280;57934;51.532;7.684;2023-09-19T02:07:47;99630.78;;;15.04;89.41
70468;BME280;57934;51.532;7.684;2023-09-19T02:10:13;99628.91;;;15.04;88.86
70468;BME280;57934;51.532;7.684;2023-09-19T02:12:39;99632.84;;;15.02;88.53
70468;BME280;57934;51.532;7.684;2023-09-19T02:15:06;99630.13;;;14.97;88.62
70468;BME280;57934;51.532;7.684;2023-09-19T02:17:32;99633.97;;;14.89;88.84
70468;BME280;57934;51.532;7.684;2023-09-19T02:19:58;99629.94;;;14.87;89.09
70468;BME280;57934;51.532;7.684;2023-09-19T02:22:27;99634.03;;;14.94;88.40
70468;BME280;57934;51.532;7.684;2023-09-19T02:24:53;99631.31;;;14.89;88.53
70468;BME280;57934;51.532;7.684;2023-09-19T02:27:19;99637.81;;;14.82;88.75
70468;BME280;57934;51.532;7.684;2023-09-19T02:29:45;99644.25;;;14.86;87.70
70468;BME280;57934;51.532;7.684;2023-09-19T02:32:11;99637.56;;;14.83;87.07
70468;BME280;57934;51.532;7.684;2023-09-19T02:34:37;99645.66;;;14.76;86.71
70468;BME280;57934;51.532;7.684;2023-09-19T02:37:05;99646.31;;;14.84;86.34
70468;BME280;57934;51.532;7.684;2023-09-19T02:39:32;99649.22;;;14.82;86.57
70468;BME280;57934;51.532;7.684;2023-09-19T02:41:58;99655.66;;;14.86;85.90
70468;BME280;57934;51.532;7.684;2023-09-19T02:44:24;99653.53;;;14.71;86.24
70468;BME280;57934;51.532;7.684;2023-09-19T02:46:50;99663.53;;;14.81;85.66
70468;BME280;57934;51.532;7.684;2023-09-19T02:49:16;99656.59;;;14.80;85.63
70468;BME280;57934;51.532;7.684;2023-09-19T02:51:44;99660.44;;;14.72;84.90
70468;BME280;57934;51.532;7.684;2023-09-19T02:54:11;99659.19;;;14.75;84.71
70468;BME280;57934;51.532;7.684;2023-09-19T02:56:37;99670.22;;;14.84;84.66
70468;BME280;57934;51.532;7.684;2023-09-19T02:59:03;99673.25;;;14.75;84.87
70468;BME280;57934;51.532;7.684;2023-09-19T03:01:30;99668.41;;;14.72;85.71
70468;BME280;57934;51.532;7.684;2023-09-19T03:03:56;99670.00;;;14.73;85.30
70468;BME280;57934;51.532;7.684;2023-09-19T03:06:22;99668.16;;;14.74;84.99
70468;BME280;57934;51.532;7.684;2023-09-19T03:08:50;99666.19;;;14.81;84.92
70468;BME280;57934;51.532;7.684;2023-09-19T03:11:18;99673.72;;;14.72;84.12
70468;BME280;57934;51.532;7.684;2023-09-19T03:13:52;99678.69;;;14.69;84.69
70468;BME280;57934;51.532;7.684;2023-09-19T03:16:20;99675.94;;;14.64;85.12
70468;BME280;57934;51.532;7.684;2023-09-19T03:18:48;99689.34;;;14.57;84.37
70468;BME280;57934;51.532;7.684;2023-09-19T03:21:16;99681.44;;;14.74;83.95
70468;BME280;57934;51.532;7.684;2023-09-19T03:23:43;99689.97;;;14.76;83.54
70468;BME280;57934;51.532;7.684;2023-09-19T03:26:13;99703.16;;;14.71;83.24
70468;BME280;57934;51.532;7.684;2023-09-19T03:28:41;99695.63;;;14.79;83.37
70468;BME280;57934;51.532;7.684;2023-09-19T03:31:09;99705.22;;;14.69;84.32
70468;BME280;57934;51.532;7.684;2023-09-19T03:33:36;99699.13;;;14.56;84.20
70468;BME280;57934;51.532;7.684;2023-09-19T03:36:04;99703.97;;;14.71;83.64
70468;BME280;57934;51.532;7.684;2023-09-19T03:38:33;99692.06;;;14.74;83.66
70468;BME280;57934;51.532;7.684;2023-09-19T03:41:01;99702.09;;;14.72;83.77
70468;BME280;57934;51.532;7.684;2023-09-19T03:43:28;99695.88;;;14.66;83.82
70468;BME280;57934;51.532;7.684;2023-09-19T03:45:55;99701.44;;;14.65;83.30
70468;BME280;57934;51.532;7.684;2023-09-19T03:48:23;99695.22;;;14.59;83.52
70468;BME280;57934;51.532;7.684;2023-09-19T03:50:50;99698.31;;;14.68;83.15
70468;BME280;57934;51.532;7.684;2023-09-19T03:53:19;99696.69;;;14.67;82.85
70468;BME280;57934;51.532;7.684;2023-09-19T03:55:45;99707.66;;;14.59;82.61
70468;BME280;57934;51.532;7.684;2023-09-19T03:58:12;99709.88;;;14.50;82.07
70468;BME280;57934;51.532;7.684;2023-09-19T04:00:39;99704.91;;;14.53;81.63
70468;BME280;57934;51.532;7.684;2023-09-19T04:03:05;99700.50;;;14.47;80.84
70468;BME280;57934;51.532;7.684;2023-09-19T04:05:32;99706.63;;;14.48;81.05
70468;BME280;57934;51.532;7.684;2023-09-19T04:08:00;99695.22;;;14.59;80.05
70468;BME280;57934;51.532;7.684;2023-09-19T04:10:26;99697.63;;;14.37;80.67
70468;BME280;57934;51.532;7.684;2023-09-19T04:12:54;99700.16;;;14.44;79.86
70468;BME280;57934;51.532;7.684;2023-09-19T04:15:23;99699.50;;;14.37;79.78
70468;BME280;57934;51.532;7.684;2023-09-19T04:17:51;99707.31;;;14.31;80.23
70468;BME280;57934;51.532;7.684;2023-09-19T04:20:18;99699.97;;;14.22;80.86
70468;BME280;57934;51.532;7.684;2023-09-19T04:22:51;99699.25;;;14.26;80.15
70468;BME280;57934;51.532;7.684;2023-09-19T04:25:18;99700.19;;;14.20;80.73
70468;BME280;57934;51.532;7.684;2023-09-19T04:27:44;99699.97;;;14.22;80.63
70468;BME280;57934;51.532;7.684;2023-09-19T04:30:10;99698.78;;;14.18;81.03
70468;BME280;57934;51.532;7.684;2023-09-19T04:32:38;99701.44;;;14.18;81.13
70468;BME280;57934;51.532;7.684;2023-09-19T04:35:07;99706.88;;;14.23;80.86
70468;BME280;57934;51.532;7.684;2023-09-19T04:37:40;99713.44;;;14.20;80.64
70468;BME280;57934;51.532;7.684;2023-09-19T04:40:08;99699.38;;;14.20;80.63
70468;BME280;57934;51.532;7.684;2023-09-19T04:42:43;99704.34;;;14.04;81.22
70468;BME280;57934;51.532;7.684;2023-09-19T04:45:10;99716.19;;;14.14;81.24
70468;BME280;57934;51.532;7.684;2023-09-19T04:47:37;99711.50;;;14.16;81.10
70468;BME280;57934;51.532;7.684;2023-09-19T04:50:09;99720.16;;;14.11;81.22
70468;BME280;57934;51.532;7.684;2023-09-19T04:52:43;99716.44;;;14.24;80.63
70468;BME280;57934;51.532;7.684;2023-09-19T04:55:11;99717.00;;;14.14;81.21
70468;BME280;57934;51.532;7.684;2023-09-19T04:57:49;99719.44;;;14.16;81.20
70468;BME280;57934;51.532;7.684;2023-09-19T05:00:20;99718.50;;;14.10;80.98
70468;BME280;57934;51.532;7.684;2023-09-19T05:02:51;99720.00;;;14.06;81.60
70468;BME280;57934;51.532;7.684;2023-09-19T05:05:17;99723.59;;;14.12;81.72
70468;BME280;57934;51.532;7.684;2023-09-19T05:07:45;99727.25;;;14.11;81.96
70468;BME280;57934;51.532;7.684;2023-09-19T05:10:12;99735.56;;;14.14;81.79
70468;BME280;57934;51.532;7.684;2023-09-19T05:12:38;99734.53;;;14.03;82.57
70468;BME280;57934;51.532;7.684;2023-09-19T05:15:06;99724.50;;;14.05;82.38
70468;BME280;57934;51.532;7.684;2023-09-19T05:17:35;99736.41;;;14.15;82.24
70468;BME280;57934;51.532;7.684;2023-09-19T05:20:04;99739.97;;;14.20;82.17
70468;BME280;57934;51.532;7.684;2023-09-19T05:22:41;99751.38;;;14.21;81.94
70468;BME280;57934;51.532;7.684;2023-09-19T05:25:09;99750.91;;;14.12;82.50
70468;BME280;57934;51.532;7.684;2023-09-19T05:27:36;99758.50;;;13.97;83.22
70468;BME280;57934;51.532;7.684;2023-09-19T05:30:02;99763.56;;;13.98;83.15
70468;BME280;57934;51.532;7.684;2023-09-19T05:32:28;99759.78;;;14.06;82.53
70468;BME280;57934;51.532;7.684;2023-09-19T05:34:55;99771.44;;;14.17;81.86
70468;BME280;57934;51.532;7.684;2023-09-19T05:37:22;99782.53;;;14.25;82.28
70468;BME280;57934;51.532;7.684;2023-09-19T05:39:49;99783.09;;;14.16;82.32
70468;BME280;57934;51.532;7.684;2023-09-19T05:42:15;99786.88;;;14.20;81.30
70468;BME280;57934;51.532;7.684;2023-09-19T05:44:41;99783.53;;;14.13;81.80
70468;BME280;57934;51.532;7.684;2023-09-19T05:47:07;99786.44;;;14.11;82.45
70468;BME280;57934;51.532;7.684;2023-09-19T05:49:37;99793.09;;;14.14;82.32
70468;BME280;57934;51.532;7.684;2023-09-19T05:52:08;99795.19;;;14.23;81.60
70468;BME280;57934;51.532;7.684;2023-09-19T05:54:34;99801.09;;;14.25;82.12
70468;BME280;57934;51.532;7.684;2023-09-19T05:57:00;99797.63;;;14.37;81.82
70468;BME280;57934;51.532;7.684;2023-09-19T05:59:27;99806.03;;;14.22;81.91
70468;BME280;57934;51.532;7.684;2023-09-19T06:01:53;99816.16;;;14.25;82.14
70468;BME280;57934;51.532;7.684;2023-09-19T06:04:19;99810.66;;;14.26;81.93
70468;BME280;57934;51.532;7.684;2023-09-19T06:06:46;99804.19;;;14.34;81.63
70468;BME280;57934;51.532;7.684;2023-09-19T06:09:15;99817.44;;;14.46;81.63
70468;BME280;57934;51.532;7.684;2023-09-19T06:11:44;99814.63;;;14.59;81.21
70468;BME280;57934;51.532;7.684;2023-09-19T06:14:10;99807.44;;;14.48;81.30
70468;BME280;57934;51.532;7.684;2023-09-19T06:16:37;99814.34;;;14.49;81.25
70468;BME280;57934;51.532;7.684;2023-09-19T06:19:07;99808.97;;;14.55;81.67
70468;BME280;57934;51.532;7.684;2023-09-19T06:21:36;99813.94;;;14.64;80.87
70468;BME280;57934;51.532;7.684;2023-09-19T06:24:02;99809.78;;;14.68;80.90
70468;BME280;57934;51.532;7.684;2023-09-19T06:26:28;99802.59;;;14.56;81.39
70468;BME280;57934;51.532;7.684;2023-09-19T06:28:55;99807.94;;;14.68;80.69
70468;BME280;57934;51.532;7.684;2023-09-19T06:31:21;99811.16;;;14.82;79.99
70468;BME280;57934;51.532;7.684;2023-09-19T06:33:52;99806.84;;;14.81;79.86
70468;BME280;57934;51.532;7.684;2023-09-19T06:36:18;99803.28;;;14.87;79.63
70468;BME280;57934;51.532;7.684;2023-09-19T06:38:45;99805.72;;;14.89;80.10
70468;BME280;57934;51.532;7.684;2023-09-19T06:41:11;99810.44;;;14.87;79.48
70468;BME280;57934;51.532;7.684;2023-09-19T06:43:38;99809.28;;;14.94;79.95
70468;BME280;57934;51.532;7.684;2023-09-19T06:46:05;99816.91;;;15.02;79.16
70468;BME280;57934;51.532;7.684;2023-09-19T06:48:33;99820.34;;;14.91;79.73
70468;BME280;57934;51.532;7.684;2023-09-19T06:50:59;99813.06;;;14.98;79.37
70468;BME280;57934;51.532;7.684;2023-09-19T06:53:34;99811.00;;;15.00;79.68
70468;BME280;57934;51.532;7.684;2023-09-19T06:56:02;99814.78;;;15.16;79.31
70468;BME280;57934;51.532;7.684;2023-09-19T06:58:28;99828.63;;;15.18;79.59
70468;BME280;57934;51.532;7.684;2023-09-19T07:00:54;99823.56;;;15.17;78.82
70468;BME280;57934;51.532;7.684;2023-09-19T07:03:22;99822.03;;;15.21;78.98
70468;BME280;57934;51.532;7.684;2023-09-19T07:05:52;99822.84;;;15.21;79.16
70468;BME280;57934;51.532;7.684;2023-09-19T07:08:18;99830.69;;;15.28;78.79
70468;BME280;57934;51.532;7.684;2023-09-19T07:10:44;99837.06;;;15.27;78.98
70468;BME280;57934;51.532;7.684;2023-09-19T07:13:31;99835.13;;;15.11;79.21
70468;BME280;57934;51.532;7.684;2023-09-19T07:15:58;99831.88;;;15.20;78.45
70468;BME280;57934;51.532;7.684;2023-09-19T07:18:25;99832.63;;;15.33;78.24
70468;BME280;57934;51.532;7.684;2023-09-19T07:20:57;99826.25;;;15.34;78.48
70468;BME280;57934;51.532;7.684;2023-09-19T07:23:27;99828.91;;;15.45;78.25
70468;BME280;57934;51.532;7.684;2023-09-19T07:25:57;99828.72;;;15.64;77.69
70468;BME280;57934;51.532;7.684;2023-09-19T07:28:23;99828.78;;;15.81;77.00
70468;BME280;57934;51.532;7.684;2023-09-19T07:30:49;99834.91;;;15.81;76.57
70468;BME280;57934;51.532;7.684;2023-09-19T07:33:15;99842.50;;;15.89;76.75
70468;BME280;57934;51.532;7.684;2023-09-19T07:35:45;99842.63;;;16.11;75.94
70468;BME280;57934;51.532;7.684;2023-09-19T07:38:12;99847.91;;;15.94;76.22
70468;BME280;57934;51.532;7.684;2023-09-19T07:40:38;99859.69;;;15.98;75.70
70468;BME280;57934;51.532;7.684;2023-09-19T07:43:04;99858.34;;;16.13;75.61
70468;BME280;57934;51.532;7.684;2023-09-19T07:45:31;99848.91;;;16.22;75.89
70468;BME280;57934;51.532;7.684;2023-09-19T07:47:57;99853.69;;;16.37;75.02
70468;BME280;57934;51.532;7.684;2023-09-19T07:50:24;99845.59;;;16.49;74.30
70468;BME280;57934;51.532;7.684;2023-09-19T07:52:52;99853.91;;;16.35;74.39
70468;BME280;57934;51.532;7.684;2023-09-19T07:55:19;99855.44;;;16.31;75.05
70468;BME280;57934;51.532;7.684;2023-09-19T07:57:49;99850.91;;;16.49;74.58
70468;BME280;57934;51.532;7.684;2023-09-19T08:00:15;99842.72;;;16.33;74.42
70468;BME280;57934;51.532;7.684;2023-09-19T08:02:42;99846.22;;;16.56;74.06
70468;BME280;57934;51.532;7.684;2023-09-19T08:05:10;99848.25;;;16.49;73.75
70468;BME280;57934;51.532;7.684;2023-09-19T08:07:39;99847.63;;;16.75;73.93
70468;BME280;57934;51.532;7.684;2023-09-19T08:10:07;99852.03;;;16.86;73.41
70468;BME280;57934;51.532;7.684;2023-09-19T08:12:42;99856.78;;;16.84;72.79
70468;BME280;57934;51.532;7.684;2023-09-19T08:15:19;99860.53;;;16.83;72.88
70468;BME280;57934;51.532;7.684;2023-09-19T08:17:46;99859.53;;;16.89;73.10
70468;BME280;57934;51.532;7.684;2023-09-19T08:20:13;99858.47;;;17.29;71.73
70468;BME280;57934;51.532;7.684;2023-09-19T08:22:51;99862.13;;;17.72;70.96
70468;BME280;57934;51.532;7.684;2023-09-19T08:25:18;99863.72;;;17.90;69.91
70468;BME280;57934;51.532;7.684;2023-09-19T08:27:45;99865.94;;;18.30;68.84
70468;BME280;57934;51.532;7.684;2023-09-19T08:30:20;99868.28;;;18.59;66.78
70468;BME280;57934;51.532;7.684;2023-09-19T08:33:10;99865.72;;;18.05;68.10
70468;BME280;57934;51.532;7.684;2023-09-19T08:35:36;99869.09;;;18.27;67.51
70468;BME280;57934;51.532;7.684;2023-09-19T08:38:03;99873.63;;;18.59;67.08
70468;BME280;57934;51.532;7.684;2023-09-19T08:40:30;99866.19;;;19.03;65.50
70468;BME280;57934;51.532;7.684;2023-09-19T08:42:59;99870.84;;;18.76;65.82
70468;BME280;57934;51.532;7.684;2023-09-19T08:45:26;99877.31;;;18.85;65.65
70468;BME280;57934;51.532;7.684;2023-09-19T08:50:30;99888.19;;;18.14;67.32
70468;BME280;57934;51.532;7.684;2023-09-19T08:53:00;99881.31;;;17.91;68.10
70468;BME280;57934;51.532;7.684;2023-09-19T08:55:27;99883.78;;;17.98;67.61
70468;BME280;57934;51.532;7.684;2023-09-19T08:58:00;99890.78;;;18.04;67.62
70468;BME280;57934;51.532;7.684;2023-09-19T09:00:28;99887.25;;;17.98;66.96
70468;BME280;57934;51.532;7.684;2023-09-19T09:02:55;99892.53;;;18.20;66.54
70468;BME280;57934;51.532;7.684;2023-09-19T09:05:23;99888.66;;;18.70;65.89
70468;BME280;57934;51.532;7.684;2023-09-19T09:07:50;99891.91;;;18.72;65.19
70468;BME280;57934;51.532;7.684;2023-09-19T09:10:22;99885.56;;;18.83;64.75
70468;BME280;57934;51.532;7.684;2023-09-19T09:12:51;99890.69;;;18.90;63.94
70468;BME280;57934;51.532;7.684;2023-09-19T09:15:19;99883.66;;;19.21;64.05
70468;BME280;57934;51.532;7.684;2023-09-19T09:17:48;99874.38;;;19.34;63.36
70468;BME280;57934;51.532;7.684;2023-09-19T09:20:17;99877.69;;;19.09;62.84
70468;BME280;57934;51.532;7.684;2023-09-19T09:22:54;99905.47;;;19.55;62.26
70468;BME280;57934;51.532;7.684;2023-09-19T09:25:22;99889.00;;;19.21;62.95
70468;BME280;57934;51.532;7.684;2023-09-19T09:28:01;99888.06;;;19.58;62.00
70468;BME280;57934;51.532;7.684;2023-09-19T09:30:35;99880.91;;;19.64;62.21
70468;BME280;57934;51.532;7.684;2023-09-19T09:33:10;99887.41;;;19.93;61.12
70468;BME280;57934;51.532;7.684;2023-09-19T09:35:46;99876.97;;;19.87;60.65
70468;BME280;57934;51.532;7.684;2023-09-19T09:38:13;99884.44;;;19.90;59.65
70468;BME280;57934;51.532;7.684;2023-09-19T09:40:47;99880.47;;;20.02;59.79
70468;BME280;57934;51.532;7.684;2023-09-19T09:43:29;99881.22;;;19.83;59.90
70468;BME280;57934;51.532;7.684;2023-09-19T09:46:15;99881.53;;;20.01;59.29
70468;BME280;57934;51.532;7.684;2023-09-19T09:51:48;99874.88;;;20.40;57.86
70468;BME280;57934;51.532;7.684;2023-09-19T09:54:24;99879.13;;;20.92;56.52
70468;BME280;57934;51.532;7.684;2023-09-19T09:59:21;99881.31;;;20.69;56.75
70468;BME280;57934;51.532;7.684;2023-09-19T10:01:50;99880.47;;;20.89;55.23
70468;BME280;57934;51.532;7.684;2023-09-19T10:04:28;99875.88;;;21.10;54.91
70468;BME280;57934;51.532;7.684;2023-09-19T10:07:02;99873.03;;;21.51;53.72
70468;BME280;57934;51.532;7.684;2023-09-19T10:09:46;99865.19;;;22.09;52.49
70468;BME280;57934;51.532;7.684;2023-09-19T10:12:13;99867.06;;;20.84;53.71
70468;BME280;57934;51.532;7.684;2023-09-19T10:14:44;99873.63;;;21.33;53.82
70468;BME280;57934;51.532;7.684;2023-09-19T10:17:14;99871.09;;;21.67;53.36
70468;BME280;57934;51.532;7.684;2023-09-19T10:19:54;99865.44;;;22.47;52.15
70468;BME280;57934;51.532;7.684;2023-09-19T10:22:24;99863.03;;;22.11;51.81
70468;BME280;57934;51.532;7.684;2023-09-19T10:24:57;99866.56;;;21.57;52.03
70468;BME280;57934;51.532;7.684;2023-09-19T10:27:29;99858.41;;;21.73;50.98
70468;BME280;57934;51.532;7.684;2023-09-19T10:29:57;99855.56;;;21.59;51.46
70468;BME280;57934;51.532;7.684;2023-09-19T10:32:26;99862.09;;;21.42;53.11
70468;BME280;57934;51.532;7.684;2023-09-19T10:34:55;99854.50;;;22.04;50.95
70468;BME280;57934;51.532;7.684;2023-09-19T10:37:23;99857.88;;;21.16;51.83
70468;BME280;57934;51.532;7.684;2023-09-19T10:39:52;99849.03;;;21.75;52.06
70468;BME280;57934;51.532;7.684;2023-09-19T10:42:20;99845.97;;;22.60;50.72
70468;BME280;57934;51.532;7.684;2023-09-19T10:44:51;99856.25;;;23.73;48.73
70468;BME280;57934;51.532;7.684;2023-09-19T10:47:21;99848.31;;;22.67;49.52
70468;BME280;57934;51.532;7.684;2023-09-19T10:49:50;99844.91;;;22.85;49.89
70468;BME280;57934;51.532;7.684;2023-09-19T10:52:20;99845.00;;;24.04;48.09
70468;BME280;57934;51.532;7.684;2023-09-19T10:54:51;99841.44;;;25.29;45.54
70468;BME280;57934;51.532;7.684;2023-09-19T10:57:24;99855.31;;;24.95;43.24
70468;BME280;57934;51.532;7.684;2023-09-19T11:00:04;99845.72;;;24.61;43.32
70468;BME280;57934;51.532;7.684;2023-09-19T11:05:41;99844.78;;;25.62;42.73
70468;BME280;57934;51.532;7.684;2023-09-19T11:08:08;99839.13;;;25.73;41.03
70468;BME280;57934;51.532;7.684;2023-09-19T11:10:48;99842.44;;;26.06;40.21
70468;BME280;57934;51.532;7.684;2023-09-19T11:13:27;99822.72;;;24.91;42.18
70468;BME280;57934;51.532;7.684;2023-09-19T11:26:50;99828.25;;;25.14;41.75
70468;BME280;57934;51.532;7.684;2023-09-19T11:29:28;99814.06;;;25.58;41.59
70468;BME280;57934;51.532;7.684;2023-09-19T11:31:58;99821.13;;;25.45;41.69
70468;BME280;57934;51.532;7.684;2023-09-19T11:39:40;99816.06;;;25.66;41.36
70468;BME280;57934;51.532;7.684;2023-09-19T11:42:45;99832.81;;;25.41;40.99
70468;BME280;57934;51.532;7.684;2023-09-19T11:48:23;99829.50;;;26.79;38.56
70468;BME280;57934;51.532;7.684;2023-09-19T11:50:52;99829.13;;;26.63;39.33
70468;BME280;57934;51.532;7.684;2023-09-19T11:53:20;99832.72;;;25.82;40.07
70468;BME280;57934;51.532;7.684;2023-09-19T11:55:47;99837.91;;;26.15;40.01
70468;BME280;57934;51.532;7.684;2023-09-19T11:58:17;99834.03;;;26.30;40.11
70468;BME280;57934;51.532;7.684;2023-09-19T12:00:45;99831.44;;;26.78;38.28
70468;BME280;57934;51.532;7.684;2023-09-19T12:03:12;99840.34;;;25.80;39.88
70468;BME280;57934;51.532;7.684;2023-09-19T12:05:40;99836.38;;;25.14;40.72
70468;BME280;57934;51.532;7.684;2023-09-19T12:08:09;99826.91;;;23.72;44.06
70468;BME280;57934;51.532;7.684;2023-09-19T12:10:47;99837.78;;;22.47;46.63
70468;BME280;57934;51.532;7.684;2023-09-19T12:13:18;99832.91;;;21.75;48.50
70468;BME280;57934;51.532;7.684;2023-09-19T12:15:45;99839.50;;;21.54;49.38
70468;BME280;57934;51.532;7.684;2023-09-19T12:18:29;99803.88;;;21.33;50.56
70468;BME280;57934;51.532;7.684;2023-09-19T12:20:56;99801.78;;;21.25;50.73
70468;BME280;57934;51.532;7.684;2023-09-19T12:23:24;99822.28;;;21.00;51.38
70468;BME280;57934;51.532;7.684;2023-09-19T12:25:52;99821.22;;;20.96;51.47
70468;BME280;57934;51.532;7.684;2023-09-19T12:28:27;99819.56;;;21.10;50.65
70468;BME280;57934;51.532;7.684;2023-09-19T12:30:56;99807.78;;;21.01;50.69
70468;BME280;57934;51.532;7.684;2023-09-19T12:33:23;99803.56;;;20.80;50.84
70468;BME280;57934;51.532;7.684;2023-09-19T12:35:52;99814.03;;;20.76;51.66
70468;BME280;57934;51.532;7.684;2023-09-19T12:38:25;99815.91;;;20.76;51.37
70468;BME280;57934;51.532;7.684;2023-09-19T12:40:57;99806.84;;;20.51;52.06
70468;BME280;57934;51.532;7.684;2023-09-19T12:43:28;99801.47;;;20.56;52.23
70468;BME280;57934;51.532;7.684;2023-09-19T12:45:54;99800.13;;;20.59;52.69
70468;BME280;57934;51.532;7.684;2023-09-19T12:48:24;99793.94;;;20.63;51.83
70468;BME280;57934;51.532;7.684;2023-09-19T12:51:05;99796.31;;;20.80;51.01
70468;BME280;57934;51.532;7.684;2023-09-19T12:53:33;99790.47;;;20.68;51.59
70468;BME280;57934;51.532;7.684;2023-09-19T12:56:03;99791.81;;;20.60;51.73
70468;BME280;57934;51.532;7.684;2023-09-19T12:58:47;99780.31;;;20.60;52.15
70468;BME280;57934;51.532;7.684;2023-09-19T13:01:14;99788.63;;;20.58;52.74
70468;BME280;57934;51.532;7.684;2023-09-19T13:03:40;99775.19;;;20.68;52.28
70468;BME280;57934;51.532;7.684;2023-09-19T13:06:06;99791.53;;;20.72;51.09
70468;BME280;57934;51.532;7.684;2023-09-19T13:08:39;99786.22;;;20.46;51.25
70468;BME280;57934;51.532;7.684;2023-09-19T13:11:11;99768.78;;;20.49;52.25
70468;BME280;57934;51.532;7.684;2023-09-19T13:13:49;99779.25;;;20.61;50.94
70468;BME280;57934;51.532;7.684;2023-09-19T13:16:16;99776.28;;;20.62;50.91
70468;BME280;57934;51.532;7.684;2023-09-19T13:21:32;99778.38;;;20.81;51.89
70468;BME280;57934;51.532;7.684;2023-09-19T13:24:22;99784.53;;;20.86;52.96
70468;BME280;57934;51.532;7.684;2023-09-19T13:26:51;99773.47;;;21.03;52.84
70468;BME280;57934;51.532;7.684;2023-09-19T13:29:18;99781.59;;;20.78;52.54
70468;BME280;57934;51.532;7.684;2023-09-19T13:31:51;99784.53;;;20.86;51.82
70468;BME280;57934;51.532;7.684;2023-09-19T13:34:19;99788.19;;;21.11;52.12
70468;BME280;57934;51.532;7.684;2023-09-19T13:36:46;99787.13;;;21.07;51.61
70468;BME280;57934;51.532;7.684;2023-09-19T13:39:15;99778.84;;;21.03;51.44
70468;BME280;57934;51.532;7.684;2023-09-19T13:41:44;99777.00;;;20.88;52.13
70468;BME280;57934;51.532;7.684;2023-09-19T13:44:10;99776.97;;;20.93;51.75
70468;BME280;57934;51.532;7.684;2023-09-19T13:46:37;99783.72;;;20.81;52.92
70468;BME280;57934;51.532;7.684;2023-09-19T13:49:03;99769.75;;;20.99;51.68
70468;BME280;57934;51.532;7.684;2023-09-19T13:51:32;99777.28;;;20.87;50.95
70468;BME280;57934;51.532;7.684;2023-09-19T13:53:58;99771.34;;;20.95;52.23
70468;BME280;57934;51.532;7.684;2023-09-19T13:56:27;99763.34;;;20.90;50.75
70468;BME280;57934;51.532;7.684;2023-09-19T13:58:57;99757.50;;;20.72;50.80
70468;BME280;57934;51.532;7.684;2023-09-19T14:01:23;99747.00;;;20.86;49.54